Airfield :
LOGIN :

Register | Disclaimer

   EN    FR    IT 

 










Legend :    VFR   Marginal VFR   IFR   Intensive IFR   Very Intensive IFR
Visi :
Ceiling :
>= 8 km
>= 3000ft
5 to 8 km
1000 to 3000 ft
1500m to 5 km
500 to 1000 ft
800 to 1500m
200 to 500 ft
< 800m
< 200 ft
Symbols :   Thunderstorms  Fog  Heavy snow  Heavy precipitations  Wind > 20 kt
SIGMETs :     Misc.  Thunderstorms  Icing  Turbulence  Mountain Waves  Volcanic Ashes







- Airport Elevation : 741 ft
- IATA code : PED


LKPD - Pardubice AB

CURRENT METAR :
  • 172200Z 27004KT 9999 -SN NSC M01/M02 Q1022 RMK BLU

EXPIRED METARs :
  • 172139Z 28004KT 200V300 9999 -SN NSC M01/M02 Q1022 RMK BLU
  • 172100Z VRB01KT 9999 FEW040 SCT060 M01/M02 Q1022 RMK BLU
  • 172000Z 27007KT CAVOK M01/M02 Q1021 NOSIG RMK BLU BLU

TAF TAF LKPD
Valid from the 17 at 18:00 until the 18 at 18:00 UTC


171700Z 1718/1818 28006KT 9999 SCT015 BKN030
TEMPO 1718/1720 4000 SNRA BKN015
PROB40
TEMPO 1718/1720 1000 SN SCT006 BKN010
BECMG 1800/1802 VRB02KT
PROB30
TEMPO 1802/1806 2000 BR SCT006
BECMG 1814/1816 CAVOK
No reported NOTAMs for that airfield.



MET'MAP, your aeronautical weather chart ! - Copyright ORBIFLY December 2007 - Disclaimer

ORBIFLY MET'MAP TEAM :

Programming & Development : Alexandra Zaïnal
Concept & Development : Baudouin d'Aumeries
Co-Development & Prog : Marc-Olivier Méhu
Technical & hardware support : Manuel Goepfert

Contact : metmap@orbifly.com




SOURCES & CREDITS :

   NOAA